Time;durP1;ratioP1;P1;durP2;ratioP2;P2;SDS_P1;SDS_P2;PMS_P1;PMS_P2;Temp;Humidity;BMP_temperature;BMP_pressure;BME280_temperature;BME280_humidity;BME280_pressure;Samples;Min_cycle;Max_cycle;Signal;HPM_P1;HPM_P2
2023/03/01 00:00:25;;;;;;;6.18;3.83;;;2.80;99.90;;;;;;4171663;28;20034;-66
2023/03/01 00:02:25;;;;;;;6.82;3.78;;;2.80;99.90;;;;;;4172855;28;20037;-66
2023/03/01 00:04:27;;;;;;;13.68;4.65;;;2.90;99.90;;;;;;4170561;28;20026;-66
2023/03/01 00:06:28;;;;;;;6.23;3.80;;;2.80;99.90;;;;;;4179708;28;20388;-66
2023/03/01 00:08:29;;;;;;;5.60;3.83;;;2.80;99.90;;;;;;4179184;28;20140;-67
2023/03/01 00:10:30;;;;;;;7.27;4.50;;;2.80;99.90;;;;;;4177590;28;20395;-67
2023/03/01 00:12:31;;;;;;;6.07;3.38;;;2.80;99.90;;;;;;4181172;28;20303;-66
2023/03/01 00:14:32;;;;;;;6.90;4.25;;;2.80;99.90;;;;;;4179875;28;20065;-66
2023/03/01 00:16:39;;;;;;;5.25;3.72;;;2.70;99.90;;;;;;4178301;28;20053;-66
2023/03/01 00:18:40;;;;;;;6.22;3.90;;;2.70;99.90;;;;;;4180960;28;20026;-66
2023/03/01 00:20:40;;;;;;;7.60;3.83;;;2.60;99.90;;;;;;4180463;28;20032;-66
2023/03/01 00:22:41;;;;;;;8.30;4.28;;;2.70;99.90;;;;;;4186228;28;20063;-66
2023/03/01 00:24:41;;;;;;;5.63;3.97;;;2.60;99.90;;;;;;4185928;28;20033;-66
2023/03/01 00:26:42;;;;;;;6.72;4.07;;;2.60;99.90;;;;;;4176479;28;20049;-66
2023/03/01 00:28:43;;;;;;;8.05;4.35;;;2.60;99.90;;;;;;4181442;28;20040;-66
2023/03/01 00:30:44;;;;;;;5.68;4.03;;;2.50;99.90;;;;;;4187534;28;20041;-67
2023/03/01 00:32:45;;;;;;;8.27;4.65;;;2.50;99.90;;;;;;4180347;28;20031;-66
2023/03/01 00:34:53;;;;;;;9.90;4.47;;;2.50;99.90;;;;;;4181861;28;20111;-67
2023/03/01 00:36:54;;;;;;;7.10;4.07;;;2.40;99.90;;;;;;4178953;28;20048;-66
2023/03/01 00:38:55;;;;;;;6.28;4.03;;;2.40;99.90;;;;;;4185004;28;20033;-66
2023/03/01 00:41:06;;;;;;;7.15;4.03;;;2.10;99.90;;;;;;4181113;28;20456;-66
2023/03/01 00:43:07;;;;;;;9.18;4.53;;;1.90;99.90;;;;;;4183491;28;20032;-66
2023/03/01 00:45:08;;;;;;;8.27;4.20;;;1.90;99.90;;;;;;4182132;28;20036;-67
2023/03/01 00:47:08;;;;;;;7.75;4.50;;;1.80;99.90;;;;;;4180873;28;20090;-66
2023/03/01 00:49:09;;;;;;;7.10;4.32;;;1.70;99.90;;;;;;4178974;28;20029;-66
2023/03/01 00:51:18;;;;;;;8.18;4.32;;;1.60;99.90;;;;;;4183588;28;20051;-67
2023/03/01 00:53:18;;;;;;;7.88;4.38;;;1.60;99.90;;;;;;4181758;28;20037;-67
2023/03/01 00:55:19;;;;;;;8.40;4.47;;;1.50;99.90;;;;;;4174824;28;20045;-66
2023/03/01 00:57:19;;;;;;;5.35;3.90;;;1.40;99.90;;;;;;4183006;28;20098;-66
2023/03/01 00:59:20;;;;;;;7.22;4.43;;;1.50;99.90;;;;;;4182724;28;20037;-66
2023/03/01 01:01:23;;;;;;;6.38;4.15;;;1.40;99.90;;;;;;4175172;28;20515;-67
2023/03/01 01:03:24;;;;;;;7.07;4.40;;;1.40;99.90;;;;;;4180160;28;20029;-66
2023/03/01 01:05:25;;;;;;;7.57;4.30;;;1.40;99.90;;;;;;4180792;28;20116;-66
2023/03/01 01:07:26;;;;;;;8.35;4.50;;;1.30;99.90;;;;;;4175102;28;20414;-66
2023/03/01 01:09:26;;;;;;;6.72;3.97;;;1.30;99.90;;;;;;4182853;28;20029;-67
2023/03/01 01:11:29;;;;;;;7.18;4.50;;;1.30;99.90;;;;;;4184799;28;20029;-66
2023/03/01 01:13:29;;;;;;;;;;;1.30;99.90;;;;;;4189521;28;20033;-67
2023/03/01 01:15:34;;;;;;;9.45;4.82;;;1.20;99.90;;;;;;4183036;28;19919;-66
2023/03/01 01:17:35;;;;;;;9.70;4.70;;;1.20;99.90;;;;;;4182845;28;20124;-66
2023/03/01 01:19:35;;;;;;;6.50;4.00;;;1.20;99.90;;;;;;4188517;28;20484;-66
2023/03/01 01:21:36;;;;;;;8.35;4.63;;;1.20;99.90;;;;;;4188001;28;20036;-66
2023/03/01 01:23:38;;;;;;;6.10;4.13;;;1.20;99.90;;;;;;4189464;28;20055;-67
2023/03/01 01:25:38;;;;;;;7.25;4.03;;;1.20;99.90;;;;;;4187912;28;21764;-67
2023/03/01 01:27:39;;;;;;;6.28;4.03;;;1.20;99.90;;;;;;4184782;28;20487;-67
2023/03/01 01:29:39;;;;;;;7.80;4.03;;;1.20;99.90;;;;;;4184736;28;20472;-67
2023/03/01 01:31:41;;;;;;;7.97;3.72;;;1.30;99.90;;;;;;4188481;28;20523;-67
2023/03/01 01:33:42;;;;;;;6.85;4.30;;;1.30;99.90;;;;;;4184736;28;20996;-67
2023/03/01 01:35:45;;;;;;;7.88;4.28;;;1.40;99.90;;;;;;4185374;28;20719;-67
2023/03/01 01:37:45;;;;;;;7.82;3.50;;;1.40;99.90;;;;;;4183789;28;20499;-67
2023/03/01 01:39:46;;;;;;;8.10;3.72;;;1.50;99.90;;;;;;4184589;28;20037;-67
2023/03/01 01:41:47;;;;;;;7.05;4.22;;;1.50;99.90;;;;;;4185835;28;20124;-67
2023/03/01 01:44:11;;;;;;;7.05;3.75;;;1.60;99.90;;;;;;4189487;28;20105;-66
2023/03/01 01:46:29;;;;;;;6.53;3.90;;;1.60;99.90;;;;;;4182530;28;20064;-68
2023/03/01 01:48:49;;;;;;;5.47;3.60;;;1.70;99.90;;;;;;4181858;28;20469;-67
2023/03/01 01:51:00;;;;;;;8.43;4.38;;;1.70;99.90;;;;;;4186806;28;20036;-66
2023/03/01 01:53:01;;;;;;;5.47;3.90;;;1.80;99.90;;;;;;4191987;28;20098;-67
2023/03/01 01:55:17;;;;;;;6.15;4.07;;;1.80;99.90;;;;;;4187713;28;20025;-66
2023/03/01 01:57:25;;;;;;;10.35;4.45;;;1.70;99.90;;;;;;4179571;28;20037;-67
2023/03/01 01:59:28;;;;;;;9.20;4.00;;;1.70;99.90;;;;;;4182871;28;20033;-66
2023/03/01 02:01:28;;;;;;;9.85;5.07;;;1.60;99.90;;;;;;4187382;28;20437;-67
2023/03/01 02:03:36;;;;;;;6.47;4.57;;;1.60;99.90;;;;;;4175996;28;20036;-67
2023/03/01 02:05:47;;;;;;;6.63;3.95;;;1.50;99.90;;;;;;4184034;28;20028;-67
2023/03/01 02:07:48;;;;;;;8.18;4.38;;;1.50;99.90;;;;;;4181110;28;20116;-66
2023/03/01 02:09:52;;;;;;;7.15;4.05;;;1.50;99.90;;;;;;4187188;28;20029;-66
2023/03/01 02:11:54;;;;;;;7.57;4.18;;;1.50;99.90;;;;;;4180843;28;20506;-67
2023/03/01 02:13:54;;;;;;;7.43;4.57;;;1.50;99.90;;;;;;4186630;28;20033;-67
2023/03/01 02:15:55;;;;;;;7.22;4.55;;;1.50;99.90;;;;;;4185847;28;20384;-66
2023/03/01 02:17:56;;;;;;;6.97;4.72;;;1.60;99.90;;;;;;4180989;28;20057;-66
2023/03/01 02:20:18;;;;;;;7.38;4.25;;;1.60;99.90;;;;;;4187778;28;20036;-67
2023/03/01 02:22:25;;;;;;;9.33;5.07;;;1.60;99.90;;;;;;4187456;28;20036;-66
2023/03/01 02:24:45;;;;;;;6.78;4.30;;;1.60;99.90;;;;;;4182801;28;20041;-67
2023/03/01 02:26:49;;;;;;;8.23;4.80;;;1.60;99.90;;;;;;4173996;28;20053;-67
2023/03/01 02:28:50;;;;;;;10.30;5.38;;;1.60;99.90;;;;;;4188750;28;20032;-66
2023/03/01 02:33:11;;;;;;;8.75;5.10;;;1.60;99.90;;;;;;4177254;28;20029;-67
2023/03/01 02:35:15;;;;;;;7.82;4.60;;;1.60;99.90;;;;;;4181685;28;20063;-67
2023/03/01 02:37:24;;;;;;;7.38;4.40;;;1.60;99.90;;;;;;4181544;28;20400;-68
2023/03/01 02:39:32;;;;;;;8.52;4.65;;;1.60;99.90;;;;;;4187712;28;20048;-67
2023/03/01 02:41:39;;;;;;;9.27;5.10;;;1.50;99.90;;;;;;4179791;28;20442;-67
2023/03/01 02:43:39;;;;;;;10.70;5.55;;;1.20;99.90;;;;;;4186883;28;20120;-67
2023/03/01 02:45:56;;;;;;;8.32;5.18;;;1.00;99.90;;;;;;4184236;28;20491;-68
2023/03/01 02:47:57;;;;;;;9.15;4.65;;;0.80;99.90;;;;;;4179686;28;20044;-66
2023/03/01 02:49:57;;;;;;;9.35;5.00;;;0.80;99.90;;;;;;4187116;28;20044;-67
2023/03/01 02:52:20;;;;;;;8.73;4.95;;;0.80;99.90;;;;;;4187119;28;20525;-67
2023/03/01 02:54:36;;;;;;;7.10;4.70;;;0.80;99.90;;;;;;4186878;28;20037;-70
2023/03/01 02:56:37;;;;;;;10.10;5.15;;;0.80;99.90;;;;;;4174483;28;20064;-67
2023/03/01 02:58:44;;;;;;;7.15;4.93;;;0.80;99.90;;;;;;4179412;28;20029;-66
2023/03/01 03:00:46;;;;;;;7.68;4.30;;;0.80;99.90;;;;;;4178907;28;20100;-67
2023/03/01 03:02:50;;;;;;;7.30;5.25;;;0.80;99.90;;;;;;4180139;28;20036;-67
2023/03/01 03:04:50;;;;;;;8.55;5.03;;;0.80;99.90;;;;;;4191459;28;20029;-66
2023/03/01 03:06:51;;;;;;;7.55;4.85;;;0.70;99.90;;;;;;4177213;28;20077;-66
2023/03/01 03:08:51;;;;;;;7.45;4.70;;;0.70;99.90;;;;;;4188515;28;20078;-67
2023/03/01 03:10:52;;;;;;;6.57;4.20;;;0.70;99.90;;;;;;4183855;28;20345;-67
2023/03/01 03:12:56;;;;;;;8.23;4.97;;;0.70;99.90;;;;;;4182296;28;20045;-66
2023/03/01 03:14:56;;;;;;;6.10;4.43;;;0.80;99.90;;;;;;4186412;28;20029;-67
2023/03/01 03:16:57;;;;;;;9.15;5.07;;;0.90;99.90;;;;;;4178144;28;20045;-67
2023/03/01 03:19:04;;;;;;;7.60;4.78;;;1.00;99.90;;;;;;4178214;28;20449;-67
2023/03/01 03:21:12;;;;;;;7.82;5.20;;;1.00;99.90;;;;;;4179496;28;20518;-67
2023/03/01 03:23:13;;;;;;;10.20;4.97;;;1.00;99.90;;;;;;4188051;28;20075;-67
2023/03/01 03:25:13;;;;;;;8.90;4.72;;;1.00;99.90;;;;;;4181883;28;20472;-67
2023/03/01 03:27:14;;;;;;;8.10;5.55;;;1.00;99.90;;;;;;4180721;28;20049;-67
2023/03/01 03:29:15;;;;;;;10.38;5.40;;;1.00;99.90;;;;;;4180630;28;21274;-67
2023/03/01 03:31:15;;;;;;;9.93;5.70;;;1.00;99.90;;;;;;4185608;28;20040;-67
2023/03/01 03:33:16;;;;;;;8.50;5.35;;;0.90;99.90;;;;;;4183180;28;20039;-67
2023/03/01 03:35:16;;;;;;;8.50;5.35;;;0.80;99.90;;;;;;4178988;28;20551;-67
2023/03/01 03:39:51;;;;;;;7.85;4.97;;;0.70;99.90;;;;;;4131744;28;20048;-67
2023/03/01 03:41:55;;;;;;;8.55;5.03;;;0.60;99.90;;;;;;4182746;28;20036;-67
2023/03/01 03:43:55;;;;;;;7.95;5.10;;;0.60;99.90;;;;;;4176012;28;20490;-67
2023/03/01 03:45:56;;;;;;;8.65;4.72;;;0.70;99.90;;;;;;4177330;28;20381;-66
2023/03/01 03:47:57;;;;;;;10.30;5.10;;;0.80;99.90;;;;;;4183885;28;20398;-68
2023/03/01 03:49:57;;;;;;;8.68;4.88;;;0.80;99.90;;;;;;4182177;28;20112;-66
2023/03/01 03:51:58;;;;;;;9.27;5.50;;;0.90;99.90;;;;;;4176715;28;20025;-67
2023/03/01 03:53:59;;;;;;;9.93;5.22;;;0.90;99.90;;;;;;4187609;28;20052;-67
2023/03/01 03:55:59;;;;;;;7.97;5.07;;;1.00;99.90;;;;;;4184209;28;20047;-66
2023/03/01 03:58:06;;;;;;;9.68;5.20;;;1.00;99.90;;;;;;4178535;28;20052;-67
2023/03/01 04:00:14;;;;;;;7.60;5.07;;;1.10;99.90;;;;;;4183231;28;20017;-67
2023/03/01 04:02:21;;;;;;;12.43;5.57;;;1.10;99.90;;;;;;4184870;28;20047;-67
2023/03/01 04:04:22;;;;;;;9.48;5.68;;;1.10;99.90;;;;;;4181045;28;20037;-66
2023/03/01 04:06:22;;;;;;;7.78;4.90;;;1.20;99.90;;;;;;4177543;28;20025;-66
2023/03/01 04:08:23;;;;;;;10.80;5.18;;;1.20;99.90;;;;;;4186920;28;20033;-67
2023/03/01 04:10:24;;;;;;;10.20;5.25;;;1.20;99.90;;;;;;4177501;28;20029;-67
2023/03/01 04:12:24;;;;;;;8.70;5.05;;;1.30;99.90;;;;;;4186570;28;20086;-67
2023/03/01 04:14:25;;;;;;;9.88;5.57;;;1.30;99.90;;;;;;4187575;28;20147;-67
2023/03/01 04:16:26;;;;;;;6.75;4.82;;;1.30;99.90;;;;;;4182630;28;20048;-66
2023/03/01 04:18:26;;;;;;;11.52;5.85;;;1.30;99.90;;;;;;4179848;28;20037;-66
2023/03/01 04:20:31;;;;;;;8.65;5.30;;;1.30;99.90;;;;;;4182944;28;20403;-67
2023/03/01 04:22:31;;;;;;;10.25;5.80;;;1.30;99.90;;;;;;4185219;28;20514;-67
2023/03/01 04:24:32;;;;;;;8.77;5.45;;;1.30;99.90;;;;;;4183603;28;20115;-67
2023/03/01 04:26:33;;;;;;;9.52;5.53;;;1.30;99.90;;;;;;4179143;28;20060;-66
2023/03/01 04:28:36;;;;;;;8.93;5.38;;;1.30;99.90;;;;;;4182516;28;20029;-67
2023/03/01 04:30:38;;;;;;;9.18;5.60;;;1.30;99.90;;;;;;4185785;28;20037;-67
2023/03/01 04:32:38;;;;;;;8.48;5.15;;;1.40;99.90;;;;;;4186879;28;20043;-67
2023/03/01 04:34:39;;;;;;;9.60;5.70;;;1.30;99.90;;;;;;4191078;28;20120;-67
2023/03/01 04:36:40;;;;;;;9.75;6.22;;;1.30;99.90;;;;;;4177919;28;20044;-67
2023/03/01 04:38:41;;;;;;;8.38;5.28;;;1.30;99.90;;;;;;4184648;28;20105;-67
2023/03/01 04:40:42;;;;;;;9.10;5.30;;;1.30;99.90;;;;;;4175798;28;20047;-67
2023/03/01 04:42:43;;;;;;;8.55;5.30;;;1.30;99.90;;;;;;4182288;28;20037;-67
2023/03/01 04:44:44;;;;;;;10.00;5.30;;;1.30;99.90;;;;;;4182153;28;20056;-67
2023/03/01 04:46:48;;;;;;;9.70;5.70;;;1.30;99.90;;;;;;4182667;28;20048;-67
2023/03/01 04:48:49;;;;;;;7.97;4.65;;;1.20;99.90;;;;;;4193813;28;20056;-67
2023/03/01 04:50:49;;;;;;;9.75;5.38;;;1.20;99.90;;;;;;4184336;28;20407;-67
2023/03/01 04:52:50;;;;;;;8.48;5.80;;;1.20;99.90;;;;;;4181210;28;20242;-66
2023/03/01 04:54:50;;;;;;;10.20;5.13;;;1.20;99.90;;;;;;4191487;28;20391;-66
2023/03/01 04:56:51;;;;;;;11.70;5.65;;;1.20;99.90;;;;;;4184759;28;20029;-66
2023/03/01 04:58:53;;;;;;;10.23;5.78;;;1.10;99.90;;;;;;4181736;28;20029;-66
2023/03/01 05:00:54;;;;;;;9.88;5.05;;;1.10;99.90;;;;;;4183320;28;20029;-67
2023/03/01 05:03:00;;;;;;;8.50;5.25;;;1.10;99.90;;;;;;4181824;28;20488;-67
2023/03/01 05:05:01;;;;;;;8.00;5.10;;;1.20;99.90;;;;;;4188871;28;20029;-66
2023/03/01 05:07:01;;;;;;;11.77;5.88;;;1.10;99.90;;;;;;4177501;28;20400;-66
2023/03/01 05:09:02;;;;;;;10.98;5.90;;;1.10;99.90;;;;;;4187540;28;20862;-67
2023/03/01 05:11:03;;;;;;;7.95;5.28;;;1.10;99.90;;;;;;4189559;28;20032;-67
2023/03/01 05:13:04;;;;;;;8.02;4.80;;;1.20;99.90;;;;;;4189374;28;20440;-66
2023/03/01 05:15:06;;;;;;;8.32;4.95;;;1.10;99.90;;;;;;4185343;28;20043;-68
2023/03/01 05:17:07;;;;;;;;;;;1.10;99.90;;;;;;4180406;28;20060;-67
2023/03/01 05:19:15;;;;;;;7.32;4.88;;;1.10;99.90;;;;;;4184570;28;19909;-67
2023/03/01 05:21:16;;;;;;;7.07;4.63;;;1.00;99.90;;;;;;4188407;28;20033;-67
2023/03/01 05:23:16;;;;;;;8.02;5.30;;;1.00;99.90;;;;;;4186327;28;20033;-67
2023/03/01 05:25:17;;;;;;;10.23;4.97;;;0.90;99.90;;;;;;4185323;28;20037;-67
2023/03/01 05:27:18;;;;;;;8.65;5.03;;;0.90;99.90;;;;;;4186574;28;20064;-66
2023/03/01 05:29:24;;;;;;;8.95;5.35;;;0.80;99.90;;;;;;4188713;28;20036;-67
2023/03/01 05:31:25;;;;;;;8.45;5.22;;;0.70;99.90;;;;;;4183175;28;20021;-66
2023/03/01 05:33:26;;;;;;;8.88;5.57;;;0.60;99.90;;;;;;4180968;28;20041;-67
2023/03/01 05:35:27;;;;;;;10.20;5.70;;;0.50;99.90;;;;;;4171265;28;21231;-66
2023/03/01 05:37:28;;;;;;;11.93;5.68;;;0.50;99.90;;;;;;4181537;28;20318;-66
2023/03/01 05:39:30;;;;;;;8.68;5.03;;;0.50;99.90;;;;;;4172797;28;20032;-67
2023/03/01 05:41:30;;;;;;;10.32;5.25;;;0.50;99.90;;;;;;4183178;28;20032;-66
2023/03/01 05:43:34;;;;;;;11.45;5.70;;;0.50;99.90;;;;;;4174146;28;20531;-66
2023/03/01 05:45:37;;;;;;;8.90;4.95;;;0.50;99.90;;;;;;4175117;28;20513;-66
2023/03/01 05:47:43;;;;;;;10.10;5.40;;;0.50;99.90;;;;;;4176621;28;20037;-66
2023/03/01 05:49:43;;;;;;;9.27;5.20;;;0.50;99.90;;;;;;4172712;28;20041;-67
2023/03/01 05:51:50;;;;;;;7.90;5.18;;;0.50;99.90;;;;;;4174373;28;20124;-66
2023/03/01 05:53:50;;;;;;;10.75;5.57;;;0.50;99.90;;;;;;4182169;28;20377;-67
2023/03/01 05:55:51;;;;;;;6.78;4.80;;;0.50;99.90;;;;;;4176167;28;20101;-66
2023/03/01 05:57:51;;;;;;;8.82;5.13;;;0.50;99.90;;;;;;4180568;28;20037;-66
2023/03/01 05:59:52;;;;;;;9.35;5.13;;;0.50;99.90;;;;;;4173731;28;20090;-67
2023/03/01 06:01:53;;;;;;;7.75;4.55;;;0.60;99.90;;;;;;4172822;28;20059;-66
2023/03/01 06:03:53;;;;;;;8.48;5.53;;;0.50;99.90;;;;;;4177623;28;20030;-66
2023/03/01 06:05:58;;;;;;;8.00;5.03;;;0.50;99.90;;;;;;4179268;28;20051;-67
2023/03/01 06:08:00;;;;;;;8.45;5.32;;;0.50;99.90;;;;;;4180251;28;20499;-67
2023/03/01 06:10:01;;;;;;;9.35;5.50;;;0.50;99.90;;;;;;4174665;28;20035;-66
2023/03/01 06:12:02;;;;;;;9.68;5.45;;;0.50;99.90;;;;;;4179040;28;20044;-66
2023/03/01 06:14:03;;;;;;;11.63;6.10;;;0.40;99.90;;;;;;4176645;28;20032;-67
2023/03/01 06:16:06;;;;;;;9.73;5.93;;;0.30;99.90;;;;;;4173113;28;20033;-66
2023/03/01 06:18:06;;;;;;;11.40;6.60;;;0.20;99.90;;;;;;4173868;28;20021;-67
2023/03/01 06:20:28;;;;;;;12.27;6.38;;;0.10;99.90;;;;;;4174898;28;20033;-67
2023/03/01 06:22:28;;;;;;;10.48;5.97;;;0.00;99.90;;;;;;4171640;28;20114;-67
2023/03/01 06:24:29;;;;;;;9.18;5.72;;;-0.10;99.90;;;;;;4175350;28;20486;-66
2023/03/01 06:26:30;;;;;;;11.43;5.93;;;-0.20;99.90;;;;;;4176889;28;20034;-66
2023/03/01 06:28:30;;;;;;;9.82;6.30;;;-0.30;99.90;;;;;;4178833;28;20116;-67
2023/03/01 06:30:31;;;;;;;9.65;6.15;;;-0.40;99.90;;;;;;4176797;28;20195;-66
2023/03/01 06:32:32;;;;;;;10.18;5.78;;;-0.50;99.90;;;;;;4173957;28;20044;-66
2023/03/01 06:34:33;;;;;;;11.02;6.22;;;-0.50;99.90;;;;;;4175775;28;20029;-67
2023/03/01 06:36:33;;;;;;;10.23;5.47;;;-0.50;99.90;;;;;;4176308;28;20492;-67
2023/03/01 06:38:34;;;;;;;8.75;5.45;;;-0.40;99.90;;;;;;4180460;28;20495;-66
2023/03/01 06:40:35;;;;;;;10.75;6.45;;;-0.40;99.90;;;;;;4176888;28;20463;-67
2023/03/01 06:42:35;;;;;;;11.18;5.75;;;-0.50;99.90;;;;;;4185659;28;20040;-67
2023/03/01 06:44:37;;;;;;;9.95;5.97;;;-0.50;99.90;;;;;;4181786;28;20511;-66
2023/03/01 06:46:39;;;;;;;11.70;6.95;;;-0.60;99.90;;;;;;4171666;28;20045;-66
2023/03/01 06:48:39;;;;;;;13.00;7.10;;;-0.60;99.90;;;;;;4175486;28;20057;-66
2023/03/01 06:50:40;;;;;;;11.95;5.95;;;-0.70;99.90;;;;;;4185473;28;20107;-68
2023/03/01 06:52:41;;;;;;;12.10;7.07;;;-0.80;99.90;;;;;;4180506;28;20041;-68
2023/03/01 06:54:41;;;;;;;10.80;6.55;;;-0.80;99.90;;;;;;4183211;28;20131;-68
2023/03/01 06:56:42;;;;;;;17.13;7.03;;;-0.90;99.90;;;;;;4177010;28;20045;-68
2023/03/01 06:58:42;;;;;;;13.05;6.55;;;-0.80;99.90;;;;;;4187017;28;20046;-68
2023/03/01 07:00:44;;;;;;;12.45;7.07;;;-0.80;99.90;;;;;;4178174;28;20032;-67
2023/03/01 07:02:44;;;;;;;13.77;6.82;;;-0.80;99.90;;;;;;4177882;28;20047;-67
2023/03/01 07:04:45;;;;;;;12.50;7.15;;;-0.70;99.90;;;;;;4187586;28;21597;-68
2023/03/01 07:06:45;;;;;;;10.95;6.63;;;-0.50;99.90;;;;;;4175611;28;20037;-68
2023/03/01 07:08:46;;;;;;;13.07;7.15;;;-0.40;99.90;;;;;;4184920;28;20040;-68
2023/03/01 07:10:47;;;;;;;14.93;7.57;;;-0.20;99.90;;;;;;4181662;28;20047;-68
2023/03/01 07:12:48;;;;;;;12.43;6.72;;;-0.10;99.90;;;;;;4182493;28;20033;-68
2023/03/01 07:14:48;;;;;;;11.50;7.13;;;0.00;99.90;;;;;;4177668;28;20484;-68
2023/03/01 07:16:49;;;;;;;10.70;6.40;;;0.10;99.90;;;;;;4171760;28;20507;-68
2023/03/01 07:18:49;;;;;;;13.98;7.32;;;0.20;99.90;;;;;;4178750;28;20510;-68
2023/03/01 07:20:50;;;;;;;11.45;6.65;;;0.20;99.90;;;;;;4184223;28;20376;-68
2023/03/01 07:22:52;;;;;;;13.25;6.35;;;0.40;99.90;;;;;;4178450;28;20083;-68
2023/03/01 07:24:53;;;;;;;9.48;5.93;;;0.50;99.90;;;;;;4175469;28;20515;-67
2023/03/01 07:26:53;;;;;;;10.68;6.47;;;0.70;99.90;;;;;;4177235;28;20048;-68
2023/03/01 07:28:54;;;;;;;11.43;6.20;;;0.90;99.90;;;;;;4185799;28;20029;-67
2023/03/01 07:30:54;;;;;;;13.23;7.03;;;1.10;99.90;;;;;;4174933;28;20033;-67
2023/03/01 07:32:56;;;;;;;13.45;7.28;;;1.30;99.90;;;;;;4186769;28;20040;-68
2023/03/01 07:34:57;;;;;;;11.48;7.35;;;1.40;99.90;;;;;;4187142;28;20044;-67
2023/03/01 07:36:57;;;;;;;13.05;6.28;;;1.60;99.90;;;;;;4179248;28;20032;-69
2023/03/01 07:38:58;;;;;;;12.45;6.22;;;1.80;99.90;;;;;;4180403;28;20060;-67
2023/03/01 07:41:03;;;;;;;10.32;6.40;;;2.10;99.90;;;;;;4175350;28;20037;-68
2023/03/01 07:43:04;;;;;;;10.90;6.05;;;2.20;99.90;;;;;;4178796;28;20079;-68
2023/03/01 07:45:06;;;;;;;13.50;5.93;;;2.50;99.90;;;;;;4182519;28;20043;-68
2023/03/01 07:47:06;;;;;;;9.98;6.68;;;2.60;99.90;;;;;;4177945;28;20059;-69
2023/03/01 07:49:07;;;;;;;12.38;6.68;;;2.80;99.90;;;;;;4176888;28;20045;-68
2023/03/01 07:51:08;;;;;;;10.45;6.32;;;2.80;99.90;;;;;;4168275;28;20055;-69
2023/03/01 07:53:10;;;;;;;13.82;6.55;;;3.10;99.90;;;;;;4170282;28;20033;-68
2023/03/01 07:55:10;;;;;;;10.85;6.78;;;3.40;99.90;;;;;;4179689;28;20040;-69
2023/03/01 07:57:11;;;;;;;10.60;6.28;;;3.60;99.90;;;;;;4177230;28;20135;-69
2023/03/01 07:59:11;;;;;;;11.90;6.55;;;3.90;99.90;;;;;;4175476;28;21150;-69
2023/03/01 08:01:16;;;;;;;13.25;6.60;;;4.20;99.90;;;;;;4186844;28;20488;-69
2023/03/01 08:03:17;;;;;;;13.98;7.13;;;4.40;99.90;;;;;;4187050;28;20077;-69
2023/03/01 08:05:18;;;;;;;12.25;6.78;;;4.60;99.90;;;;;;4174616;28;20037;-70
2023/03/01 08:07:18;;;;;;;11.80;6.40;;;4.40;99.90;;;;;;4181565;28;20029;-70
2023/03/01 08:09:19;;;;;;;12.68;6.72;;;4.60;99.90;;;;;;4185484;28;20039;-69
2023/03/01 08:11:19;;;;;;;12.82;6.65;;;4.70;99.90;;;;;;4179786;28;20032;-70
2023/03/01 08:13:22;;;;;;;16.98;6.65;;;4.80;99.90;;;;;;4187349;28;20036;-70
2023/03/01 08:15:22;;;;;;;10.82;6.53;;;4.90;99.90;;;;;;4178603;28;20029;-70
2023/03/01 08:17:23;;;;;;;11.68;6.95;;;4.90;99.90;;;;;;4179088;28;20029;-69
2023/03/01 08:19:24;;;;;;;15.55;7.63;;;4.90;99.90;;;;;;4179591;28;20029;-70
2023/03/01 08:21:24;;;;;;;13.13;7.15;;;4.80;99.90;;;;;;4181004;28;20376;-69
2023/03/01 08:23:25;;;;;;;15.00;7.65;;;4.90;99.90;;;;;;4186709;28;20472;-70
2023/03/01 08:25:26;;;;;;;25.95;7.97;;;4.80;99.90;;;;;;4186767;28;20434;-70
2023/03/01 08:27:26;;;;;;;14.95;7.57;;;4.90;99.90;;;;;;4186473;28;20056;-70
2023/03/01 08:29:27;;;;;;;15.63;7.93;;;5.20;99.90;;;;;;4186423;28;20094;-68
2023/03/01 08:31:31;;;;;;;10.68;6.68;;;5.40;99.90;;;;;;4185754;28;20048;-69
2023/03/01 08:33:32;;;;;;;15.20;7.97;;;5.60;99.90;;;;;;4178435;28;20041;-70
2023/03/01 08:35:32;;;;;;;16.27;7.32;;;5.70;99.90;;;;;;4187841;28;20522;-69
2023/03/01 08:37:33;;;;;;;15.48;7.32;;;5.20;99.90;;;;;;4181984;28;20121;-69
2023/03/01 08:39:34;;;;;;;10.20;6.13;;;5.00;99.90;;;;;;4189434;28;20094;-69
2023/03/01 08:41:34;;;;;;;16.58;7.35;;;5.40;99.90;;;;;;4187978;28;20040;-69
2023/03/01 08:43:35;;;;;;;14.63;7.22;;;5.60;99.90;;;;;;4187268;28;20388;-70
2023/03/01 08:45:35;;;;;;;12.52;6.60;;;5.60;99.90;;;;;;4183783;28;20048;-69
2023/03/01 08:47:36;;;;;;;13.05;6.72;;;5.60;99.90;;;;;;4185167;28;20044;-69
2023/03/01 08:49:36;;;;;;;13.50;6.82;;;5.70;99.90;;;;;;4184016;28;20060;-69
2023/03/01 08:51:37;;;;;;;15.85;7.18;;;5.80;99.90;;;;;;4188207;28;20423;-69
2023/03/01 08:53:38;;;;;;;11.13;6.43;;;5.80;99.90;;;;;;4185696;28;20408;-69
2023/03/01 08:55:38;;;;;;;10.15;6.03;;;6.00;99.90;;;;;;4180977;28;20535;-69
2023/03/01 08:57:39;;;;;;;13.02;6.60;;;6.00;99.90;;;;;;4181463;28;20049;-69
2023/03/01 08:59:40;;;;;;;10.90;6.90;;;6.00;99.90;;;;;;4178294;28;20028;-69
2023/03/01 09:01:43;;;;;;;15.52;7.57;;;5.90;99.90;;;;;;4184289;28;20036;-69
2023/03/01 09:03:44;;;;;;;11.55;6.50;;;5.80;99.90;;;;;;4187418;28;20054;-69
2023/03/01 09:05:45;;;;;;;12.68;7.03;;;5.90;99.90;;;;;;4181410;28;20052;-69
2023/03/01 09:07:46;;;;;;;15.90;7.43;;;5.90;99.90;;;;;;4183487;28;20048;-69
2023/03/01 09:09:46;;;;;;;10.80;6.43;;;5.60;99.90;;;;;;4177697;28;20483;-69
2023/03/01 09:11:49;;;;;;;14.73;6.60;;;5.60;99.90;;;;;;4177010;28;20044;-69
2023/03/01 09:13:50;;;;;;;14.50;7.55;;;5.60;99.90;;;;;;4180690;28;20032;-68
2023/03/01 09:15:51;;;;;;;13.80;7.53;;;5.60;99.90;;;;;;4174826;28;20029;-69
2023/03/01 09:17:52;;;;;;;12.55;6.50;;;5.80;99.90;;;;;;4177715;28;20018;-69
2023/03/01 09:19:52;;;;;;;11.32;6.43;;;5.80;99.90;;;;;;4179236;28;20094;-69
2023/03/01 09:21:53;;;;;;;12.68;7.25;;;6.00;99.90;;;;;;4186371;28;20430;-68
2023/03/01 09:23:56;;;;;;;13.25;7.65;;;5.90;99.90;;;;;;4189125;28;20025;-69
2023/03/01 09:25:57;;;;;;;10.18;6.40;;;5.80;99.90;;;;;;4183218;28;20052;-69
2023/03/01 09:27:57;;;;;;;11.05;6.75;;;5.80;99.90;;;;;;4182012;28;20391;-70
2023/03/01 09:29:58;;;;;;;16.70;8.50;;;5.70;99.90;;;;;;4181425;28;20362;-69
2023/03/01 09:31:59;;;;;;;13.63;7.70;;;5.50;99.90;;;;;;4178095;28;20036;-69
2023/03/01 09:33:59;;;;;;;17.67;8.05;;;5.70;99.90;;;;;;4178454;28;20372;-69
2023/03/01 09:36:05;;;;;;;12.90;6.90;;;5.60;99.90;;;;;;4174268;28;20083;-69
2023/03/01 09:38:06;;;;;;;11.55;7.18;;;5.50;99.90;;;;;;4180592;28;20063;-69
2023/03/01 09:40:15;;;;;;;14.98;7.50;;;5.80;99.90;;;;;;4175347;28;20563;-69
2023/03/01 09:42:16;;;;;;;13.18;7.32;;;5.80;99.90;;;;;;4180466;28;20090;-69
2023/03/01 09:44:19;;;;;;;11.35;6.50;;;5.70;99.90;;;;;;4179180;28;20112;-69
2023/03/01 09:46:22;;;;;;;14.95;7.60;;;5.90;99.90;;;;;;4174809;28;20460;-69
2023/03/01 09:48:27;;;;;;;13.80;7.75;;;5.80;99.90;;;;;;4180301;28;20025;-69
2023/03/01 09:50:38;;;;;;;19.38;8.13;;;5.80;99.90;;;;;;4177067;28;20060;-69
2023/03/01 09:52:59;;;;;;;17.58;8.30;;;6.00;99.90;;;;;;4179803;28;20024;-69
2023/03/01 09:54:59;;;;;;;18.65;8.65;;;5.90;99.90;;;;;;4175116;28;20524;-69
2023/03/01 09:57:20;;;;;;;18.40;8.45;;;5.60;99.00;;;;;;4175515;28;20041;-69
2023/03/01 09:59:30;;;;;;;15.57;8.18;;;5.50;98.90;;;;;;4180599;28;20384;-69
2023/03/01 10:01:49;;;;;;;13.90;7.95;;;5.50;99.90;;;;;;4171880;28;20029;-69
2023/03/01 10:04:07;;;;;;;10.80;7.32;;;5.50;99.40;;;;;;4179267;28;20480;-69
2023/03/01 10:06:19;;;;;;;13.02;7.35;;;5.60;98.60;;;;;;4181930;28;20483;-70
2023/03/01 10:08:38;;;;;;;17.10;8.13;;;5.40;98.60;;;;;;4174882;28;20104;-69
2023/03/01 10:10:44;;;;;;;14.75;7.65;;;5.40;99.50;;;;;;4171616;28;20468;-69
2023/03/01 10:12:45;;;;;;;11.63;7.15;;;5.50;99.90;;;;;;4181711;28;20396;-69
2023/03/01 10:15:04;;;;;;;13.68;8.13;;;5.70;99.80;;;;;;4181697;28;20025;-69
2023/03/01 10:17:18;;;;;;;12.52;7.38;;;5.70;99.70;;;;;;4176668;28;20064;-69
2023/03/01 10:19:33;;;;;;;17.33;8.07;;;5.90;97.70;;;;;;4173884;28;20037;-69
2023/03/01 10:21:42;;;;;;;12.15;7.65;;;6.10;96.70;;;;;;4174816;28;20029;-69
2023/03/01 10:23:43;;;;;;;12.02;7.30;;;6.30;97.20;;;;;;4179842;28;20090;-69
2023/03/01 10:26:14;;;;;;;12.55;7.22;;;6.40;96.60;;;;;;4173157;28;20091;-69
2023/03/01 10:28:38;;;;;;;12.80;7.38;;;6.60;96.10;;;;;;4171658;28;20129;-69
2023/03/01 10:30:41;;;;;;;13.70;7.30;;;6.40;94.90;;;;;;4165286;28;20036;-69
2023/03/01 10:32:44;;;;;;;17.90;7.70;;;6.10;94.90;;;;;;4177929;28;20048;-69
2023/03/01 10:34:44;;;;;;;13.43;8.25;;;6.00;95.80;;;;;;4176930;28;20075;-70
2023/03/01 10:36:48;;;;;;;13.88;7.88;;;6.00;95.80;;;;;;4175380;28;20042;-69
2023/03/01 10:38:57;;;;;;;16.27;7.80;;;5.90;95.80;;;;;;4175565;28;20040;-69
2023/03/01 10:41:05;;;;;;;13.57;7.43;;;5.80;96.10;;;;;;4178419;28;20036;-68
2023/03/01 10:43:07;;;;;;;18.05;8.02;;;5.80;97.40;;;;;;4175758;28;20045;-69
2023/03/01 10:45:29;;;;;;;16.77;8.52;;;5.80;98.30;;;;;;4172591;28;20427;-69
2023/03/01 10:47:29;;;;;;;15.10;8.02;;;5.70;97.10;;;;;;4167886;28;20099;-68
2023/03/01 10:49:31;;;;;;;15.10;7.60;;;5.80;99.20;;;;;;4177277;28;20053;-68